Smyrna, Georgia
Current Conditions -  °F | °C
As of 2:58 AM on Thursday 23 Oct 2014 (Local Time) from KMGE Reporting Station
Clear Clear  
Wind Chill: 47°   Ceiling: Unl
Heat Index: 47°   Visibility: 10mi
Dew Point: 42°   Wind: 3mph
Humidity: 83%   Direction: 310°NW
Pressure: 30.11"   Gusts: NA
Location:  33.88°N, 84.51°W
Report Text: KMGE 230658Z AUTO 31003KT 10SM CLR 09/06 A3011 RMK AO2 SLP195 T00850057 $
Loading
Personal Weather Stations






























Interactive Weather Map
Tropical Storm Tracking
New forecast layout! Learn more

10-Day Weather Forecast

Advertisements
Track Severe Weather on mobile